Hovedside
METAR-TAF:

METAR-TAF

Lufthavner :

Dala lufthavn

Borlänge, Sverige

breddegrad: 60-26N, lengdegrad: 015-31E, høyde over havet: 145 m

Gjeldene værobservasjon

Denne rapporten ble laget for 18 minutter siden, klokken 17:20 UTC
Vind 11 kt fra Øst-sørøst
Temperatur 20°C
Luftfuktighet 35%
Trykk 1028 hPa
Sikt 10 km eller mer
ingen skyer under 1500 m og ingen bygeskyer

METAR: ESSD 261720Z 11011KT CAVOK 20/04 Q1028

Tid: 19:38 (17:38 UTC)


TAF: fraværende

Værobservasjoner og værvarsel for over 4000 flyplasser (METAR- og TAF-rapporter).

Tilgjengelige stasjoner er representert av de røde og gule prikkene på kartet.

Hold musepekeren over prikken for å se navnet på stasjonen.

Klikk så for å se værobservasjoner og -varsler.

For å forandre kartet kan du klikke på den grønne knappen med svart kryss for å zoome inn, på den grønne knappen med strek for å zoome ut, eller på de grønne pilene for å se tilstøtende kart.


METAR-TAF: